Terminal Aerodrome Forecast
Issued by NWS Austin/San Antonio, TX

Home | Current Version | Previous Version | Text Only | Print | Product List | Glossary On
Versions: 1 2 3 4 5 6 7 8 9 10 11 12 13 14 15 16 17
000
FTUS44 KEWX 301233 AAA
TAFSAT
TAF AMD
KSAT 301233Z 3013/3118 24006KT P6SM FEW009 SCT250
      TEMPO 3013/3015 BKN009
     FM301500 13005KT P6SM FEW025
     FM301800 12008KT P6SM SCT070=

USA.gov is the U.S. government's official web portal to all federal, state and local government web resources and services.